Elston, Missouri
Current Conditions -  °F | °C
As of 11:53 PM on Wednesday 22 Oct 2014 (Local Time) from KJEF Reporting Station
Clear Clear  
Wind Chill: 44°   Ceiling: Unl
Heat Index: 47°   Visibility: 10mi
Dew Point: 41°   Wind: 6mph
Humidity: 80%   Direction: 120°ESE
Pressure: 30.18"   Gusts: NA
Location:  38.5621°N, 92.2945°W
Report Text: KJEF 230453Z AUTO 12005KT 10SM CLR 08/05 A3018 RMK AO2 SLP211 T00830050
Loading
Personal Weather Stations






























Interactive Weather Map
Tropical Storm Tracking
New forecast layout! Learn more

10-Day Weather Forecast

Advertisements
Track Severe Weather on mobile